sensor_id;sensor_type;location;lat;lon;timestamp;P1;durP1;ratioP1;P2;durP2;ratioP2
68940;SDS011;55982;51.476;7.552;2022-12-29T00:01:49;2.72;;;1.65;;
68940;SDS011;55982;51.476;7.552;2022-12-29T00:04:15;3.55;;;1.60;;
68940;SDS011;55982;51.476;7.552;2022-12-29T00:06:41;2.47;;;1.60;;
68940;SDS011;55982;51.476;7.552;2022-12-29T00:09:07;1.58;;;1.38;;
68940;SDS011;55982;51.476;7.552;2022-12-29T00:11:33;2.75;;;1.00;;
68940;SDS011;55982;51.476;7.552;2022-12-29T00:13:58;1.20;;;1.10;;
68940;SDS011;55982;51.476;7.552;2022-12-29T00:16:43;1.90;;;1.10;;
68940;SDS011;55982;51.476;7.552;2022-12-29T00:19:10;1.00;;;0.90;;
68940;SDS011;55982;51.476;7.552;2022-12-29T00:21:56;1.10;;;1.00;;
68940;SDS011;55982;51.476;7.552;2022-12-29T00:24:41;2.58;;;0.90;;
68940;SDS011;55982;51.476;7.552;2022-12-29T00:27:25;1.52;;;1.00;;
68940;SDS011;55982;51.476;7.552;2022-12-29T00:30:11;2.20;;;0.90;;
68940;SDS011;55982;51.476;7.552;2022-12-29T00:32:57;0.80;;;0.80;;
68940;SDS011;55982;51.476;7.552;2022-12-29T00:35:46;3.10;;;0.90;;
68940;SDS011;55982;51.476;7.552;2022-12-29T00:38:17;3.95;;;1.10;;
68940;SDS011;55982;51.476;7.552;2022-12-29T00:41:02;1.80;;;0.80;;
68940;SDS011;55982;51.476;7.552;2022-12-29T00:43:46;1.20;;;0.80;;
68940;SDS011;55982;51.476;7.552;2022-12-29T00:46:30;1.20;;;0.77;;
68940;SDS011;55982;51.476;7.552;2022-12-29T00:48:56;2.65;;;0.80;;
68940;SDS011;55982;51.476;7.552;2022-12-29T00:51:40;1.50;;;0.75;;
68940;SDS011;55982;51.476;7.552;2022-12-29T00:54:06;0.70;;;0.70;;
68940;SDS011;55982;51.476;7.552;2022-12-29T00:56:31;2.67;;;0.70;;
68940;SDS011;55982;51.476;7.552;2022-12-29T00:59:03;1.13;;;0.80;;
68940;SDS011;55982;51.476;7.552;2022-12-29T01:01:30;0.90;;;0.80;;
68940;SDS011;55982;51.476;7.552;2022-12-29T01:03:55;1.38;;;0.80;;
68940;SDS011;55982;51.476;7.552;2022-12-29T01:06:21;0.85;;;0.70;;
68940;SDS011;55982;51.476;7.552;2022-12-29T01:08:47;1.02;;;0.80;;
68940;SDS011;55982;51.476;7.552;2022-12-29T01:11:32;1.05;;;0.80;;
68940;SDS011;55982;51.476;7.552;2022-12-29T01:13:58;0.93;;;0.70;;
68940;SDS011;55982;51.476;7.552;2022-12-29T01:16:23;0.60;;;0.60;;
68940;SDS011;55982;51.476;7.552;2022-12-29T01:18:48;0.90;;;0.80;;
68940;SDS011;55982;51.476;7.552;2022-12-29T01:21:14;3.03;;;0.88;;
68940;SDS011;55982;51.476;7.552;2022-12-29T01:23:39;0.95;;;0.70;;
68940;SDS011;55982;51.476;7.552;2022-12-29T01:26:08;0.50;;;0.50;;
68940;SDS011;55982;51.476;7.552;2022-12-29T01:28:35;1.13;;;0.80;;
68940;SDS011;55982;51.476;7.552;2022-12-29T01:31:00;1.35;;;0.77;;
68940;SDS011;55982;51.476;7.552;2022-12-29T01:33:26;0.80;;;0.80;;
68940;SDS011;55982;51.476;7.552;2022-12-29T01:35:51;0.68;;;0.50;;
68940;SDS011;55982;51.476;7.552;2022-12-29T01:38:17;0.70;;;0.70;;
68940;SDS011;55982;51.476;7.552;2022-12-29T01:40:43;0.82;;;0.57;;
68940;SDS011;55982;51.476;7.552;2022-12-29T01:43:10;0.52;;;0.52;;
68940;SDS011;55982;51.476;7.552;2022-12-29T01:45:38;1.17;;;0.73;;
68940;SDS011;55982;51.476;7.552;2022-12-29T01:48:08;0.70;;;0.60;;
68940;SDS011;55982;51.476;7.552;2022-12-29T01:50:36;3.40;;;0.50;;
68940;SDS011;55982;51.476;7.552;2022-12-29T01:53:10;0.60;;;0.60;;
68940;SDS011;55982;51.476;7.552;2022-12-29T01:55:44;0.65;;;0.50;;
68940;SDS011;55982;51.476;7.552;2022-12-29T01:58:13;1.58;;;0.35;;
68940;SDS011;55982;51.476;7.552;2022-12-29T02:00:42;0.60;;;0.60;;
68940;SDS011;55982;51.476;7.552;2022-12-29T02:03:08;0.63;;;0.40;;
68940;SDS011;55982;51.476;7.552;2022-12-29T02:08:23;0.80;;;0.50;;
68940;SDS011;55982;51.476;7.552;2022-12-29T02:10:51;0.63;;;0.63;;
68940;SDS011;55982;51.476;7.552;2022-12-29T02:13:17;0.43;;;0.43;;
68940;SDS011;55982;51.476;7.552;2022-12-29T02:16:00;0.50;;;0.40;;
68940;SDS011;55982;51.476;7.552;2022-12-29T02:27:31;0.93;;;0.40;;
68940;SDS011;55982;51.476;7.552;2022-12-29T02:33:32;0.60;;;0.45;;
68940;SDS011;55982;51.476;7.552;2022-12-29T02:36:11;0.40;;;0.40;;
68940;SDS011;55982;51.476;7.552;2022-12-29T02:44:14;0.95;;;0.50;;
68940;SDS011;55982;51.476;7.552;2022-12-29T02:49:33;0.65;;;0.65;;
68940;SDS011;55982;51.476;7.552;2022-12-29T02:54:33;0.65;;;0.50;;
68940;SDS011;55982;51.476;7.552;2022-12-29T02:59:37;1.13;;;0.50;;
68940;SDS011;55982;51.476;7.552;2022-12-29T03:02:07;0.80;;;0.52;;
68940;SDS011;55982;51.476;7.552;2022-12-29T03:08:04;0.50;;;0.50;;
68940;SDS011;55982;51.476;7.552;2022-12-29T03:13:23;0.93;;;0.43;;
68940;SDS011;55982;51.476;7.552;2022-12-29T03:16:45;0.50;;;0.40;;
68940;SDS011;55982;51.476;7.552;2022-12-29T03:24:52;1.98;;;0.60;;
68940;SDS011;55982;51.476;7.552;2022-12-29T03:27:22;0.43;;;0.40;;
68940;SDS011;55982;51.476;7.552;2022-12-29T03:29:55;1.88;;;0.60;;
68940;SDS011;55982;51.476;7.552;2022-12-29T03:32:26;2.88;;;0.60;;
68940;SDS011;55982;51.476;7.552;2022-12-29T03:34:56;2.38;;;0.82;;
68940;SDS011;55982;51.476;7.552;2022-12-29T03:37:23;1.67;;;0.65;;
68940;SDS011;55982;51.476;7.552;2022-12-29T03:39:54;1.90;;;0.70;;
68940;SDS011;55982;51.476;7.552;2022-12-29T03:42:20;4.95;;;0.80;;
68940;SDS011;55982;51.476;7.552;2022-12-29T03:44:48;1.67;;;0.70;;
68940;SDS011;55982;51.476;7.552;2022-12-29T03:47:20;1.95;;;0.85;;
68940;SDS011;55982;51.476;7.552;2022-12-29T03:49:46;1.08;;;0.70;;
68940;SDS011;55982;51.476;7.552;2022-12-29T03:52:11;3.08;;;1.00;;
68940;SDS011;55982;51.476;7.552;2022-12-29T03:54:37;0.80;;;0.70;;
68940;SDS011;55982;51.476;7.552;2022-12-29T03:57:02;1.15;;;0.80;;
68940;SDS011;55982;51.476;7.552;2022-12-29T03:59:27;2.75;;;0.95;;
68940;SDS011;55982;51.476;7.552;2022-12-29T04:01:53;2.08;;;0.90;;
68940;SDS011;55982;51.476;7.552;2022-12-29T04:04:18;1.92;;;0.80;;
68940;SDS011;55982;51.476;7.552;2022-12-29T04:06:43;3.90;;;1.05;;
68940;SDS011;55982;51.476;7.552;2022-12-29T04:09:09;1.17;;;0.95;;
68940;SDS011;55982;51.476;7.552;2022-12-29T04:11:35;2.63;;;0.90;;
68940;SDS011;55982;51.476;7.552;2022-12-29T04:14:01;3.00;;;1.00;;
68940;SDS011;55982;51.476;7.552;2022-12-29T04:16:26;1.58;;;0.93;;
68940;SDS011;55982;51.476;7.552;2022-12-29T04:18:52;3.90;;;1.15;;
68940;SDS011;55982;51.476;7.552;2022-12-29T04:21:17;1.10;;;0.80;;
68940;SDS011;55982;51.476;7.552;2022-12-29T04:23:42;1.15;;;0.80;;
68940;SDS011;55982;51.476;7.552;2022-12-29T04:26:08;2.35;;;0.90;;
68940;SDS011;55982;51.476;7.552;2022-12-29T04:28:34;1.38;;;0.70;;
68940;SDS011;55982;51.476;7.552;2022-12-29T04:31:01;0.55;;;0.55;;
68940;SDS011;55982;51.476;7.552;2022-12-29T04:33:26;1.00;;;0.85;;
68940;SDS011;55982;51.476;7.552;2022-12-29T04:35:52;4.25;;;0.90;;
68940;SDS011;55982;51.476;7.552;2022-12-29T04:38:19;1.35;;;0.90;;
68940;SDS011;55982;51.476;7.552;2022-12-29T04:40:46;1.15;;;0.70;;
68940;SDS011;55982;51.476;7.552;2022-12-29T04:43:11;2.33;;;0.70;;
68940;SDS011;55982;51.476;7.552;2022-12-29T04:45:38;0.73;;;0.60;;
68940;SDS011;55982;51.476;7.552;2022-12-29T04:48:04;2.05;;;0.70;;
68940;SDS011;55982;51.476;7.552;2022-12-29T04:50:30;1.23;;;0.90;;
68940;SDS011;55982;51.476;7.552;2022-12-29T04:52:55;0.93;;;0.60;;
68940;SDS011;55982;51.476;7.552;2022-12-29T04:55:21;0.60;;;0.60;;
68940;SDS011;55982;51.476;7.552;2022-12-29T04:57:46;1.58;;;0.85;;
68940;SDS011;55982;51.476;7.552;2022-12-29T05:00:11;1.85;;;0.90;;
68940;SDS011;55982;51.476;7.552;2022-12-29T05:02:38;1.05;;;0.60;;
68940;SDS011;55982;51.476;7.552;2022-12-29T05:05:04;1.13;;;0.55;;
68940;SDS011;55982;51.476;7.552;2022-12-29T05:07:29;1.42;;;0.73;;
68940;SDS011;55982;51.476;7.552;2022-12-29T05:09:58;0.60;;;0.50;;
68940;SDS011;55982;51.476;7.552;2022-12-29T05:12:24;1.50;;;0.80;;
68940;SDS011;55982;51.476;7.552;2022-12-29T05:14:49;0.63;;;0.47;;
68940;SDS011;55982;51.476;7.552;2022-12-29T05:17:14;0.73;;;0.63;;
68940;SDS011;55982;51.476;7.552;2022-12-29T05:19:40;2.10;;;0.73;;
68940;SDS011;55982;51.476;7.552;2022-12-29T05:22:05;1.90;;;0.60;;
68940;SDS011;55982;51.476;7.552;2022-12-29T05:24:30;0.90;;;0.70;;
68940;SDS011;55982;51.476;7.552;2022-12-29T05:26:55;2.05;;;0.50;;
68940;SDS011;55982;51.476;7.552;2022-12-29T05:29:21;1.02;;;0.63;;
68940;SDS011;55982;51.476;7.552;2022-12-29T05:31:46;0.73;;;0.68;;
68940;SDS011;55982;51.476;7.552;2022-12-29T05:34:12;1.55;;;0.90;;
68940;SDS011;55982;51.476;7.552;2022-12-29T05:36:38;0.95;;;0.73;;
68940;SDS011;55982;51.476;7.552;2022-12-29T05:39:03;0.80;;;0.68;;
68940;SDS011;55982;51.476;7.552;2022-12-29T05:41:29;1.83;;;0.88;;
68940;SDS011;55982;51.476;7.552;2022-12-29T05:43:54;3.65;;;0.70;;
68940;SDS011;55982;51.476;7.552;2022-12-29T05:46:20;1.35;;;0.70;;
68940;SDS011;55982;51.476;7.552;2022-12-29T05:48:45;1.45;;;0.70;;
68940;SDS011;55982;51.476;7.552;2022-12-29T05:51:10;2.00;;;0.80;;
68940;SDS011;55982;51.476;7.552;2022-12-29T05:53:36;0.88;;;0.50;;
68940;SDS011;55982;51.476;7.552;2022-12-29T05:56:01;1.23;;;0.80;;
68940;SDS011;55982;51.476;7.552;2022-12-29T05:58:27;1.63;;;0.82;;
68940;SDS011;55982;51.476;7.552;2022-12-29T06:00:52;2.78;;;0.70;;
68940;SDS011;55982;51.476;7.552;2022-12-29T06:03:17;1.67;;;0.60;;
68940;SDS011;55982;51.476;7.552;2022-12-29T06:05:44;2.35;;;0.60;;
68940;SDS011;55982;51.476;7.552;2022-12-29T06:08:10;1.70;;;0.60;;
68940;SDS011;55982;51.476;7.552;2022-12-29T06:10:36;1.38;;;0.52;;
68940;SDS011;55982;51.476;7.552;2022-12-29T06:13:01;1.70;;;0.80;;
68940;SDS011;55982;51.476;7.552;2022-12-29T06:15:28;3.30;;;0.98;;
68940;SDS011;55982;51.476;7.552;2022-12-29T06:17:54;0.63;;;0.52;;
68940;SDS011;55982;51.476;7.552;2022-12-29T06:20:19;2.05;;;0.60;;
68940;SDS011;55982;51.476;7.552;2022-12-29T06:22:45;1.58;;;0.75;;
68940;SDS011;55982;51.476;7.552;2022-12-29T06:25:11;1.75;;;0.80;;
68940;SDS011;55982;51.476;7.552;2022-12-29T06:27:36;1.88;;;0.55;;
68940;SDS011;55982;51.476;7.552;2022-12-29T06:30:02;1.48;;;0.70;;
68940;SDS011;55982;51.476;7.552;2022-12-29T06:32:28;1.40;;;0.70;;
68940;SDS011;55982;51.476;7.552;2022-12-29T06:34:53;3.83;;;1.65;;
68940;SDS011;55982;51.476;7.552;2022-12-29T06:37:18;3.60;;;0.73;;
68940;SDS011;55982;51.476;7.552;2022-12-29T06:39:44;1.05;;;0.52;;
68940;SDS011;55982;51.476;7.552;2022-12-29T06:42:09;1.17;;;0.75;;
68940;SDS011;55982;51.476;7.552;2022-12-29T06:44:34;2.80;;;0.63;;
68940;SDS011;55982;51.476;7.552;2022-12-29T06:47:00;1.38;;;0.73;;
68940;SDS011;55982;51.476;7.552;2022-12-29T06:49:25;1.40;;;0.50;;
68940;SDS011;55982;51.476;7.552;2022-12-29T06:51:50;2.45;;;0.68;;
68940;SDS011;55982;51.476;7.552;2022-12-29T06:54:16;4.55;;;0.82;;
68940;SDS011;55982;51.476;7.552;2022-12-29T06:56:41;1.38;;;0.80;;
68940;SDS011;55982;51.476;7.552;2022-12-29T06:59:07;1.88;;;0.73;;
68940;SDS011;55982;51.476;7.552;2022-12-29T07:01:32;3.60;;;0.57;;
68940;SDS011;55982;51.476;7.552;2022-12-29T07:03:57;1.55;;;0.80;;
68940;SDS011;55982;51.476;7.552;2022-12-29T07:06:23;2.17;;;0.70;;
68940;SDS011;55982;51.476;7.552;2022-12-29T07:08:48;2.13;;;0.57;;
68940;SDS011;55982;51.476;7.552;2022-12-29T07:11:14;1.75;;;0.63;;
68940;SDS011;55982;51.476;7.552;2022-12-29T07:13:39;1.63;;;0.70;;
68940;SDS011;55982;51.476;7.552;2022-12-29T07:16:06;2.38;;;0.68;;
68940;SDS011;55982;51.476;7.552;2022-12-29T07:18:32;3.22;;;0.70;;
68940;SDS011;55982;51.476;7.552;2022-12-29T07:20:57;2.80;;;0.60;;
68940;SDS011;55982;51.476;7.552;2022-12-29T07:23:23;6.68;;;0.68;;
68940;SDS011;55982;51.476;7.552;2022-12-29T07:25:48;2.20;;;0.70;;
68940;SDS011;55982;51.476;7.552;2022-12-29T07:28:13;1.60;;;0.70;;
68940;SDS011;55982;51.476;7.552;2022-12-29T07:30:39;3.53;;;0.90;;
68940;SDS011;55982;51.476;7.552;2022-12-29T07:33:04;2.22;;;0.60;;
68940;SDS011;55982;51.476;7.552;2022-12-29T07:35:30;2.83;;;0.70;;
68940;SDS011;55982;51.476;7.552;2022-12-29T07:37:55;4.65;;;0.88;;
68940;SDS011;55982;51.476;7.552;2022-12-29T07:40:20;3.72;;;0.77;;
68940;SDS011;55982;51.476;7.552;2022-12-29T07:42:46;1.92;;;0.60;;
68940;SDS011;55982;51.476;7.552;2022-12-29T07:45:12;2.55;;;0.60;;
68940;SDS011;55982;51.476;7.552;2022-12-29T07:47:38;1.88;;;0.82;;
68940;SDS011;55982;51.476;7.552;2022-12-29T07:50:03;3.17;;;0.88;;
68940;SDS011;55982;51.476;7.552;2022-12-29T07:52:29;4.13;;;0.85;;
68940;SDS011;55982;51.476;7.552;2022-12-29T07:54:54;3.45;;;0.65;;
68940;SDS011;55982;51.476;7.552;2022-12-29T07:57:20;2.95;;;1.00;;
68940;SDS011;55982;51.476;7.552;2022-12-29T07:59:45;4.43;;;1.08;;
68940;SDS011;55982;51.476;7.552;2022-12-29T08:02:11;3.20;;;0.70;;
68940;SDS011;55982;51.476;7.552;2022-12-29T08:04:36;4.78;;;0.60;;
68940;SDS011;55982;51.476;7.552;2022-12-29T08:07:02;1.17;;;0.60;;
68940;SDS011;55982;51.476;7.552;2022-12-29T08:09:27;3.28;;;1.00;;
68940;SDS011;55982;51.476;7.552;2022-12-29T08:11:54;3.00;;;0.80;;
68940;SDS011;55982;51.476;7.552;2022-12-29T08:14:19;3.63;;;0.80;;
68940;SDS011;55982;51.476;7.552;2022-12-29T08:16:45;3.78;;;0.90;;
68940;SDS011;55982;51.476;7.552;2022-12-29T08:19:11;2.88;;;0.88;;
68940;SDS011;55982;51.476;7.552;2022-12-29T08:21:37;5.53;;;1.20;;
68940;SDS011;55982;51.476;7.552;2022-12-29T08:24:02;2.85;;;0.90;;
68940;SDS011;55982;51.476;7.552;2022-12-29T08:26:29;6.53;;;1.10;;
68940;SDS011;55982;51.476;7.552;2022-12-29T08:28:54;8.52;;;1.02;;
68940;SDS011;55982;51.476;7.552;2022-12-29T08:31:21;4.50;;;1.00;;
68940;SDS011;55982;51.476;7.552;2022-12-29T08:33:46;7.10;;;1.25;;
68940;SDS011;55982;51.476;7.552;2022-12-29T08:36:12;2.53;;;1.00;;
68940;SDS011;55982;51.476;7.552;2022-12-29T08:38:37;5.97;;;0.90;;
68940;SDS011;55982;51.476;7.552;2022-12-29T08:41:02;6.35;;;1.25;;
68940;SDS011;55982;51.476;7.552;2022-12-29T08:43:28;2.33;;;0.75;;
68940;SDS011;55982;51.476;7.552;2022-12-29T08:45:54;3.05;;;0.70;;
68940;SDS011;55982;51.476;7.552;2022-12-29T08:48:19;4.75;;;0.90;;
68940;SDS011;55982;51.476;7.552;2022-12-29T08:50:47;4.88;;;1.00;;
68940;SDS011;55982;51.476;7.552;2022-12-29T08:53:14;3.13;;;0.75;;
68940;SDS011;55982;51.476;7.552;2022-12-29T08:55:39;5.57;;;1.13;;
68940;SDS011;55982;51.476;7.552;2022-12-29T08:58:05;5.72;;;1.10;;
68940;SDS011;55982;51.476;7.552;2022-12-29T09:00:30;5.75;;;0.90;;
68940;SDS011;55982;51.476;7.552;2022-12-29T09:02:56;7.50;;;1.20;;
68940;SDS011;55982;51.476;7.552;2022-12-29T09:05:21;4.47;;;0.88;;
68940;SDS011;55982;51.476;7.552;2022-12-29T09:07:47;5.57;;;0.90;;
68940;SDS011;55982;51.476;7.552;2022-12-29T09:10:12;4.10;;;1.30;;
68940;SDS011;55982;51.476;7.552;2022-12-29T09:12:38;3.85;;;0.90;;
68940;SDS011;55982;51.476;7.552;2022-12-29T09:15:05;5.10;;;1.23;;
68940;SDS011;55982;51.476;7.552;2022-12-29T09:17:31;5.88;;;1.23;;
68940;SDS011;55982;51.476;7.552;2022-12-29T09:20:13;6.53;;;1.02;;
68940;SDS011;55982;51.476;7.552;2022-12-29T09:22:43;4.57;;;0.80;;
68940;SDS011;55982;51.476;7.552;2022-12-29T09:25:10;3.95;;;1.08;;
68940;SDS011;55982;51.476;7.552;2022-12-29T09:27:36;4.25;;;1.15;;
68940;SDS011;55982;51.476;7.552;2022-12-29T09:30:06;8.68;;;1.50;;
68940;SDS011;55982;51.476;7.552;2022-12-29T09:32:34;7.85;;;1.10;;
68940;SDS011;55982;51.476;7.552;2022-12-29T09:34:59;4.93;;;1.10;;
68940;SDS011;55982;51.476;7.552;2022-12-29T09:37:25;6.18;;;1.17;;
68940;SDS011;55982;51.476;7.552;2022-12-29T09:39:50;5.03;;;1.15;;
68940;SDS011;55982;51.476;7.552;2022-12-29T09:42:31;7.53;;;1.00;;
68940;SDS011;55982;51.476;7.552;2022-12-29T09:45:08;3.75;;;1.00;;
68940;SDS011;55982;51.476;7.552;2022-12-29T09:47:52;3.83;;;0.90;;
68940;SDS011;55982;51.476;7.552;2022-12-29T09:55:37;4.20;;;1.20;;
68940;SDS011;55982;51.476;7.552;2022-12-29T09:58:06;8.27;;;1.20;;
68940;SDS011;55982;51.476;7.552;2022-12-29T10:03:15;6.50;;;1.30;;
68940;SDS011;55982;51.476;7.552;2022-12-29T10:08:26;5.35;;;1.40;;
68940;SDS011;55982;51.476;7.552;2022-12-29T10:23:27;3.60;;;1.30;;
68940;SDS011;55982;51.476;7.552;2022-12-29T10:28:56;11.30;;;1.63;;
68940;SDS011;55982;51.476;7.552;2022-12-29T10:31:13;8.30;;;1.20;;
68940;SDS011;55982;51.476;7.552;2022-12-29T10:33:45;4.70;;;1.15;;
68940;SDS011;55982;51.476;7.552;2022-12-29T10:36:17;8.18;;;1.27;;
68940;SDS011;55982;51.476;7.552;2022-12-29T10:41:36;6.95;;;1.30;;
68940;SDS011;55982;51.476;7.552;2022-12-29T10:44:07;9.13;;;1.50;;
68940;SDS011;55982;51.476;7.552;2022-12-29T10:46:35;5.22;;;0.77;;
68940;SDS011;55982;51.476;7.552;2022-12-29T10:49:02;4.80;;;1.08;;
68940;SDS011;55982;51.476;7.552;2022-12-29T10:51:30;8.60;;;1.40;;
68940;SDS011;55982;51.476;7.552;2022-12-29T10:54:05;6.55;;;1.00;;
68940;SDS011;55982;51.476;7.552;2022-12-29T10:56:40;6.30;;;0.82;;
68940;SDS011;55982;51.476;7.552;2022-12-29T11:07:00;7.93;;;1.33;;
68940;SDS011;55982;51.476;7.552;2022-12-29T11:09:29;7.35;;;1.15;;
68940;SDS011;55982;51.476;7.552;2022-12-29T11:12:19;4.47;;;1.00;;
68940;SDS011;55982;51.476;7.552;2022-12-29T11:15:00;7.50;;;1.50;;
68940;SDS011;55982;51.476;7.552;2022-12-29T11:17:48;6.07;;;1.33;;
68940;SDS011;55982;51.476;7.552;2022-12-29T11:20:29;5.45;;;1.30;;
68940;SDS011;55982;51.476;7.552;2022-12-29T11:22:55;12.52;;;1.40;;
68940;SDS011;55982;51.476;7.552;2022-12-29T11:25:21;10.00;;;1.40;;
68940;SDS011;55982;51.476;7.552;2022-12-29T11:30:29;7.75;;;2.58;;
68940;SDS011;55982;51.476;7.552;2022-12-29T11:32:57;4.80;;;1.10;;
68940;SDS011;55982;51.476;7.552;2022-12-29T11:35:34;4.07;;;1.00;;
68940;SDS011;55982;51.476;7.552;2022-12-29T11:38:23;6.43;;;1.30;;
68940;SDS011;55982;51.476;7.552;2022-12-29T11:40:56;10.00;;;1.40;;
68940;SDS011;55982;51.476;7.552;2022-12-29T11:43:23;6.82;;;1.48;;
68940;SDS011;55982;51.476;7.552;2022-12-29T11:45:51;7.50;;;2.13;;
68940;SDS011;55982;51.476;7.552;2022-12-29T11:48:19;8.23;;;1.98;;
68940;SDS011;55982;51.476;7.552;2022-12-29T11:50:53;9.15;;;1.65;;
68940;SDS011;55982;51.476;7.552;2022-12-29T11:53:21;7.10;;;1.75;;
68940;SDS011;55982;51.476;7.552;2022-12-29T11:55:57;8.35;;;1.45;;
68940;SDS011;55982;51.476;7.552;2022-12-29T11:58:29;6.35;;;1.23;;
68940;SDS011;55982;51.476;7.552;2022-12-29T12:00:57;7.63;;;1.00;;
68940;SDS011;55982;51.476;7.552;2022-12-29T12:03:26;11.02;;;1.90;;
68940;SDS011;55982;51.476;7.552;2022-12-29T12:05:56;5.93;;;1.10;;
68940;SDS011;55982;51.476;7.552;2022-12-29T12:08:31;10.15;;;1.63;;
68940;SDS011;55982;51.476;7.552;2022-12-29T12:11:11;8.00;;;1.42;;
68940;SDS011;55982;51.476;7.552;2022-12-29T12:16:09;7.22;;;1.08;;
68940;SDS011;55982;51.476;7.552;2022-12-29T12:18:50;6.78;;;1.48;;
68940;SDS011;55982;51.476;7.552;2022-12-29T12:29:35;13.10;;;1.75;;
68940;SDS011;55982;51.476;7.552;2022-12-29T12:32:16;11.10;;;2.60;;
68940;SDS011;55982;51.476;7.552;2022-12-29T12:34:44;8.48;;;1.20;;
68940;SDS011;55982;51.476;7.552;2022-12-29T12:37:18;12.48;;;1.30;;
68940;SDS011;55982;51.476;7.552;2022-12-29T12:42:47;8.98;;;1.90;;
68940;SDS011;55982;51.476;7.552;2022-12-29T12:45:34;5.03;;;1.25;;
68940;SDS011;55982;51.476;7.552;2022-12-29T12:48:12;8.50;;;1.50;;
68940;SDS011;55982;51.476;7.552;2022-12-29T12:54:00;8.65;;;1.20;;
68940;SDS011;55982;51.476;7.552;2022-12-29T12:59:17;5.15;;;1.23;;
68940;SDS011;55982;51.476;7.552;2022-12-29T13:18:43;5.03;;;1.17;;
68940;SDS011;55982;51.476;7.552;2022-12-29T13:24:32;6.30;;;1.45;;
68940;SDS011;55982;51.476;7.552;2022-12-29T13:27:25;9.20;;;1.23;;
68940;SDS011;55982;51.476;7.552;2022-12-29T13:30:10;8.50;;;1.15;;
68940;SDS011;55982;51.476;7.552;2022-12-29T13:38:19;8.45;;;1.40;;
68940;SDS011;55982;51.476;7.552;2022-12-29T13:40:50;11.05;;;1.55;;
68940;SDS011;55982;51.476;7.552;2022-12-29T13:43:20;6.00;;;1.15;;
68940;SDS011;55982;51.476;7.552;2022-12-29T13:45:50;8.98;;;1.85;;
68940;SDS011;55982;51.476;7.552;2022-12-29T13:48:25;8.65;;;1.33;;
68940;SDS011;55982;51.476;7.552;2022-12-29T13:51:00;5.95;;;1.35;;
68940;SDS011;55982;51.476;7.552;2022-12-29T13:56:34;8.15;;;1.63;;
68940;SDS011;55982;51.476;7.552;2022-12-29T14:04:41;4.95;;;1.10;;
68940;SDS011;55982;51.476;7.552;2022-12-29T14:07:21;7.30;;;1.20;;
68940;SDS011;55982;51.476;7.552;2022-12-29T14:09:47;7.00;;;1.00;;
68940;SDS011;55982;51.476;7.552;2022-12-29T14:12:27;8.48;;;1.10;;
68940;SDS011;55982;51.476;7.552;2022-12-29T14:14:53;6.47;;;1.38;;
68940;SDS011;55982;51.476;7.552;2022-12-29T14:17:19;4.30;;;1.00;;
68940;SDS011;55982;51.476;7.552;2022-12-29T14:19:46;6.45;;;1.40;;
68940;SDS011;55982;51.476;7.552;2022-12-29T14:22:22;8.70;;;1.17;;
68940;SDS011;55982;51.476;7.552;2022-12-29T14:24:49;4.80;;;1.13;;
68940;SDS011;55982;51.476;7.552;2022-12-29T14:34:53;10.52;;;1.33;;
68940;SDS011;55982;51.476;7.552;2022-12-29T14:37:32;6.03;;;1.10;;
68940;SDS011;55982;51.476;7.552;2022-12-29T14:42:48;8.95;;;1.33;;
68940;SDS011;55982;51.476;7.552;2022-12-29T14:47:51;7.50;;;1.33;;
68940;SDS011;55982;51.476;7.552;2022-12-29T14:50:39;3.22;;;0.85;;
68940;SDS011;55982;51.476;7.552;2022-12-29T14:53:42;9.73;;;1.33;;
68940;SDS011;55982;51.476;7.552;2022-12-29T14:56:10;6.47;;;1.33;;
68940;SDS011;55982;51.476;7.552;2022-12-29T14:58:51;8.25;;;1.58;;
68940;SDS011;55982;51.476;7.552;2022-12-29T15:01:20;6.07;;;0.90;;
68940;SDS011;55982;51.476;7.552;2022-12-29T15:04:15;8.63;;;1.40;;
68940;SDS011;55982;51.476;7.552;2022-12-29T15:06:43;7.68;;;1.10;;
68940;SDS011;55982;51.476;7.552;2022-12-29T15:09:23;5.60;;;0.90;;
68940;SDS011;55982;51.476;7.552;2022-12-29T15:11:57;4.75;;;0.90;;
68940;SDS011;55982;51.476;7.552;2022-12-29T15:16:57;6.10;;;1.00;;
68940;SDS011;55982;51.476;7.552;2022-12-29T15:19:22;2.47;;;0.90;;
68940;SDS011;55982;51.476;7.552;2022-12-29T15:21:49;4.57;;;0.90;;
68940;SDS011;55982;51.476;7.552;2022-12-29T15:24:15;5.45;;;0.90;;
68940;SDS011;55982;51.476;7.552;2022-12-29T15:26:42;4.47;;;1.00;;
68940;SDS011;55982;51.476;7.552;2022-12-29T15:31:55;7.13;;;1.13;;
68940;SDS011;55982;51.476;7.552;2022-12-29T15:34:21;5.22;;;1.00;;
68940;SDS011;55982;51.476;7.552;2022-12-29T15:36:46;4.75;;;1.10;;
68940;SDS011;55982;51.476;7.552;2022-12-29T15:39:28;5.15;;;1.08;;
68940;SDS011;55982;51.476;7.552;2022-12-29T15:41:56;4.28;;;0.88;;
68940;SDS011;55982;51.476;7.552;2022-12-29T15:44:42;5.53;;;1.20;;
68940;SDS011;55982;51.476;7.552;2022-12-29T15:47:19;6.85;;;1.77;;
68940;SDS011;55982;51.476;7.552;2022-12-29T15:49:47;5.93;;;1.63;;
68940;SDS011;55982;51.476;7.552;2022-12-29T15:52:18;6.38;;;1.30;;
68940;SDS011;55982;51.476;7.552;2022-12-29T15:54:46;4.72;;;1.23;;
68940;SDS011;55982;51.476;7.552;2022-12-29T15:57:22;7.13;;;1.08;;
68940;SDS011;55982;51.476;7.552;2022-12-29T15:59:49;6.68;;;1.35;;
68940;SDS011;55982;51.476;7.552;2022-12-29T16:02:14;6.70;;;1.38;;
68940;SDS011;55982;51.476;7.552;2022-12-29T16:04:40;11.20;;;1.60;;
68940;SDS011;55982;51.476;7.552;2022-12-29T16:07:20;5.35;;;1.45;;
68940;SDS011;55982;51.476;7.552;2022-12-29T16:09:53;5.63;;;1.40;;
68940;SDS011;55982;51.476;7.552;2022-12-29T16:12:21;4.05;;;1.17;;
68940;SDS011;55982;51.476;7.552;2022-12-29T16:14:50;7.47;;;1.10;;
68940;SDS011;55982;51.476;7.552;2022-12-29T16:17:30;6.03;;;1.23;;
68940;SDS011;55982;51.476;7.552;2022-12-29T16:19:59;4.15;;;1.30;;
68940;SDS011;55982;51.476;7.552;2022-12-29T16:22:29;6.03;;;1.17;;
68940;SDS011;55982;51.476;7.552;2022-12-29T16:24:58;7.50;;;1.40;;
68940;SDS011;55982;51.476;7.552;2022-12-29T16:27:36;4.90;;;1.20;;
68940;SDS011;55982;51.476;7.552;2022-12-29T16:30:07;7.75;;;1.20;;
68940;SDS011;55982;51.476;7.552;2022-12-29T16:32:47;10.43;;;1.60;;
68940;SDS011;55982;51.476;7.552;2022-12-29T16:37:48;9.63;;;1.48;;
68940;SDS011;55982;51.476;7.552;2022-12-29T16:40:31;6.38;;;1.70;;
68940;SDS011;55982;51.476;7.552;2022-12-29T16:43:01;7.95;;;1.42;;
68940;SDS011;55982;51.476;7.552;2022-12-29T16:50:39;6.32;;;1.50;;
68940;SDS011;55982;51.476;7.552;2022-12-29T16:53:06;9.60;;;1.48;;
68940;SDS011;55982;51.476;7.552;2022-12-29T16:55:52;7.03;;;1.58;;
68940;SDS011;55982;51.476;7.552;2022-12-29T16:58:20;7.10;;;1.25;;
68940;SDS011;55982;51.476;7.552;2022-12-29T17:00:49;8.48;;;1.35;;
68940;SDS011;55982;51.476;7.552;2022-12-29T17:03:17;9.13;;;1.60;;
68940;SDS011;55982;51.476;7.552;2022-12-29T17:05:42;7.53;;;2.15;;
68940;SDS011;55982;51.476;7.552;2022-12-29T17:08:18;5.03;;;1.73;;
68940;SDS011;55982;51.476;7.552;2022-12-29T17:10:51;7.63;;;1.55;;
68940;SDS011;55982;51.476;7.552;2022-12-29T17:13:38;13.18;;;2.00;;
68940;SDS011;55982;51.476;7.552;2022-12-29T17:16:04;9.35;;;1.70;;
68940;SDS011;55982;51.476;7.552;2022-12-29T17:18:32;13.75;;;1.65;;
68940;SDS011;55982;51.476;7.552;2022-12-29T17:20:58;5.65;;;1.33;;
68940;SDS011;55982;51.476;7.552;2022-12-29T17:23:24;7.43;;;1.45;;
68940;SDS011;55982;51.476;7.552;2022-12-29T17:25:49;8.32;;;1.85;;
68940;SDS011;55982;51.476;7.552;2022-12-29T17:30:44;10.10;;;2.22;;
68940;SDS011;55982;51.476;7.552;2022-12-29T17:33:11;8.15;;;2.15;;
68940;SDS011;55982;51.476;7.552;2022-12-29T17:35:38;9.68;;;2.28;;
68940;SDS011;55982;51.476;7.552;2022-12-29T17:38:21;13.15;;;2.10;;
68940;SDS011;55982;51.476;7.552;2022-12-29T17:40:49;9.70;;;2.03;;
68940;SDS011;55982;51.476;7.552;2022-12-29T17:43:15;6.80;;;1.58;;
68940;SDS011;55982;51.476;7.552;2022-12-29T17:45:41;9.23;;;2.00;;